PWSweather.com
Personal Weather Stations
Station Observations
SBERGENWX
Wood Ridge, NJ 07075

Wood Ridge, NJ 07075

Lat: 40.851667, Lon: -74.088131

Elevation: 177

Station Type: Davis Vantage Vue

http://201weather.com/

Latest ConditionsUpdated 7:45:01 AM EDT Friday, Apr 19, 2019
Currently Today's Max Today's Min Today's Average
Temperature 62.5°F16.9°C 62.5°F16.9°C 58.3°F14.6°C 60.8°F16.0°C
Dew Point 58.6°F14.8°C 58.6°F14.8°C 54.3°F12.4°C 56.6°F13.7°C
Winds 2.3 mph S3.7 kmh S 3.5 mph -5.6 kmh - - 1.8 mph 2.9 kmh
Wind Gusts 5.8 mph9.3 kmh 8.1 mph13.0 kmh - -
Humidity 87% 88% 84% 86%
Pressure 29.79 in1008.8 mb 29.86 in1011.2 mb 29.79 in1008.8 mb -
Hour Temp Dew Point Humidity Winds Wind Gusts Pressure Precip Precip Rate Daily Precip Total
07:45 AM 62.5°F16.9°C 58.6°F14.8°C 87% 2.3 mph S3.7 kmh S 5.8 mph9.3 kmh 29.79 in1008.8 mb - 0.00 in0.0 mm 0.00 in0.0 mm
07:30 AM 61.9°F16.6°C 58.0°F14.4°C 87% 3.5 mph SE5.6 kmh SE 6.9 mph11.1 kmh 29.79 in1008.8 mb - 0.00 in0.0 mm 0.00 in0.0 mm
07:15 AM 61.8°F16.6°C 57.9°F14.4°C 87% 3.5 mph SSE5.6 kmh SSE 3.5 mph5.6 kmh 29.80 in1009.1 mb - 0.00 in0.0 mm 0.00 in0.0 mm
07:00 AM 61.6°F16.4°C 57.0°F13.9°C 85% Calm Calm -- 29.80 in1009.1 mb - 0.00 in0.0 mm 0.00 in0.0 mm
06:45 AM 61.6°F16.4°C 57.0°F13.9°C 85% Calm Calm -- 29.80 in1009.1 mb - 0.00 in0.0 mm 0.00 in0.0 mm
06:30 AM 61.6°F16.4°C 57.0°F13.9°C 85% Calm Calm -- 29.79 in1008.8 mb - 0.00 in0.0 mm 0.00 in0.0 mm
06:15 AM 61.6°F16.4°C 57.0°F13.9°C 85% Calm Calm -- 29.79 in1008.8 mb - 0.00 in0.0 mm 0.00 in0.0 mm
06:00 AM 61.6°F16.4°C 57.0°F13.9°C 85% Calm Calm -- 29.79 in1008.8 mb - 0.00 in0.0 mm 0.00 in0.0 mm
05:45 AM 61.6°F16.4°C 57.0°F13.9°C 85% Calm Calm -- 29.79 in1008.8 mb - 0.00 in0.0 mm 0.00 in0.0 mm
05:30 AM 61.6°F16.4°C 57.0°F13.9°C 85% Calm Calm -- 29.79 in1008.8 mb - 0.00 in0.0 mm 0.00 in0.0 mm
05:15 AM 61.6°F16.4°C 57.0°F13.9°C 85% 3.5 mph SSW5.6 kmh SSW 3.5 mph5.6 kmh 29.80 in1009.1 mb - 0.00 in0.0 mm 0.00 in0.0 mm
05:00 AM 62.0°F16.7°C 57.5°F14.2°C 85% 3.5 mph S5.6 kmh S 5.8 mph9.3 kmh 29.80 in1009.1 mb - 0.00 in0.0 mm 0.00 in0.0 mm
04:45 AM 62.1°F16.7°C 57.6°F14.2°C 85% 3.5 mph S5.6 kmh S 4.6 mph7.4 kmh 29.80 in1009.1 mb - 0.00 in0.0 mm 0.00 in0.0 mm
04:30 AM 62.2°F16.8°C 57.3°F14.1°C 84% 2.3 mph S3.7 kmh S 4.6 mph7.4 kmh 29.80 in1009.1 mb - 0.00 in0.0 mm 0.00 in0.0 mm
04:15 AM 62.2°F16.8°C 57.3°F14.1°C 84% 3.5 mph S5.6 kmh S 6.9 mph11.1 kmh 29.80 in1009.1 mb - 0.00 in0.0 mm 0.00 in0.0 mm
04:00 AM 62.3°F16.8°C 57.4°F14.1°C 84% 3.5 mph S5.6 kmh S 8.1 mph13.0 kmh 29.80 in1009.1 mb - 0.00 in0.0 mm 0.00 in0.0 mm
03:45 AM 62.2°F16.8°C 57.3°F14.1°C 84% 3.5 mph SSW5.6 kmh SSW 4.6 mph7.4 kmh 29.80 in1009.1 mb - 0.00 in0.0 mm 0.00 in0.0 mm
03:30 AM 62.0°F16.7°C 57.4°F14.1°C 85% 2.3 mph S3.7 kmh S 2.3 mph3.7 kmh 29.80 in1009.1 mb - 0.00 in0.0 mm 0.00 in0.0 mm
03:15 AM 61.2°F16.2°C 57.0°F13.9°C 86% 1.2 mph S1.9 kmh S 5.8 mph9.3 kmh 29.80 in1009.1 mb - 0.00 in0.0 mm 0.00 in0.0 mm
03:00 AM 60.6°F15.9°C 56.7°F13.7°C 87% 2.3 mph S3.7 kmh S 5.8 mph9.3 kmh 29.80 in1009.1 mb - 0.00 in0.0 mm 0.00 in0.0 mm
02:45 AM 59.9°F15.5°C 56.3°F13.5°C 88% 1.2 mph S1.9 kmh S 3.5 mph5.6 kmh 29.81 in1009.5 mb - 0.00 in0.0 mm 0.00 in0.0 mm
02:30 AM 59.8°F15.4°C 56.2°F13.4°C 88% 1.2 mph S1.9 kmh S 2.3 mph3.7 kmh 29.81 in1009.5 mb - 0.00 in0.0 mm 0.00 in0.0 mm
02:15 AM 59.7°F15.4°C 56.1°F13.4°C 88% 1.2 mph SSE1.9 kmh SSE 3.5 mph5.6 kmh 29.82 in1009.8 mb - 0.00 in0.0 mm 0.00 in0.0 mm
02:00 AM 59.4°F15.2°C 55.8°F13.2°C 88% 1.2 mph SE1.9 kmh SE 3.5 mph5.6 kmh 29.83 in1010.2 mb - 0.00 in0.0 mm 0.00 in0.0 mm
01:45 AM 59.6°F15.3°C 55.7°F13.2°C 87% 1.2 mph SSE1.9 kmh SSE 2.3 mph3.7 kmh 29.83 in1010.2 mb - 0.00 in0.0 mm 0.00 in0.0 mm
01:30 AM 59.7°F15.4°C 55.8°F13.2°C 87% 2.3 mph SSE3.7 kmh SSE 4.6 mph7.4 kmh 29.84 in1010.5 mb - 0.00 in0.0 mm 0.00 in0.0 mm
01:15 AM 59.6°F15.3°C 56.0°F13.3°C 88% 2.3 mph SSE3.7 kmh SSE 6.9 mph11.1 kmh 29.84 in1010.5 mb - 0.00 in0.0 mm 0.00 in0.0 mm
01:00 AM 59.2°F15.1°C 55.7°F13.2°C 88% 2.3 mph S3.7 kmh S 3.5 mph5.6 kmh 29.84 in1010.5 mb - 0.00 in0.0 mm 0.00 in0.0 mm
12:45 AM 58.7°F14.8°C 55.2°F12.9°C 88% 2.3 mph SSE3.7 kmh SSE 3.5 mph5.6 kmh 29.84 in1010.5 mb - 0.00 in0.0 mm 0.00 in0.0 mm
12:30 AM 58.3°F14.6°C 54.8°F12.7°C 88% 2.3 mph S3.7 kmh S 4.6 mph7.4 kmh 29.85 in1010.8 mb - 0.00 in0.0 mm 0.00 in0.0 mm
12:15 AM 58.5°F14.7°C 54.3°F12.4°C 86% Calm Calm -- 29.85 in1010.8 mb - 0.00 in0.0 mm 0.00 in0.0 mm
12:00 AM 58.7°F14.8°C 54.5°F12.5°C 86% 1.2 mph SSE1.9 kmh SSE 2.3 mph3.7 kmh 29.86 in1011.2 mb - 0.00 in0.0 mm 0.00 in0.0 mm